Terminal Aerodrome Forecast
Issued by NWS

Home | Current Version | Previous Version | Text Only | Print | Product List | Glossary On
Versions: 1 2 3 4 5 6 7 8 9 10 11 12 13 14 15 16 17 18 19 20 21
299
FTUS41 KGYX 191305 AAA
TAFHIE
TAF AMD
KHIE 191305Z 1913/2012 00000KT P6SM FEW002 OVC028
     FM191400 12004KT P6SM BKN040 BKN080
     FM200000 VRB03KT P6SM SCT040 BKN080=

USA.gov is the U.S. government's official web portal to all federal, state and local government web resources and services.